createdAt,value
2022-09-09T00:04:30.190Z,100.00
2022-09-09T00:09:49.816Z,100.00
2022-09-09T00:15:01.662Z,100.00
2022-09-09T00:21:00.568Z,100.00
2022-09-09T00:26:16.786Z,99.97
2022-09-09T00:31:28.980Z,100.00
2022-09-09T00:36:38.349Z,100.00
2022-09-09T00:41:58.507Z,100.00
2022-09-09T00:47:19.832Z,100.00
2022-09-09T00:52:38.748Z,100.00
2022-09-09T00:57:47.382Z,100.00
2022-09-09T01:03:05.048Z,100.00
2022-09-09T01:08:22.890Z,100.00
2022-09-09T01:13:32.722Z,100.00
2022-09-09T01:18:43.043Z,100.00
2022-09-09T01:24:16.194Z,100.00
2022-09-09T01:29:25.509Z,100.00
2022-09-09T01:34:39.594Z,100.00
2022-09-09T01:39:47.321Z,100.00
2022-09-09T01:44:55.491Z,100.00
2022-09-09T01:50:03.897Z,100.00
2022-09-09T01:55:15.314Z,100.00
2022-09-09T02:00:22.207Z,100.00
2022-09-09T02:05:38.139Z,100.00
2022-09-09T02:10:53.028Z,100.00
2022-09-09T02:16:09.297Z,100.00
2022-09-09T02:21:19.344Z,100.00
2022-09-09T02:26:28.369Z,100.00
2022-09-09T02:31:38.112Z,100.00
2022-09-09T02:36:46.717Z,100.00
2022-09-09T02:41:53.948Z,100.00
2022-09-09T02:47:18.363Z,100.00
2022-09-09T02:52:35.106Z,100.00
2022-09-09T02:57:41.639Z,100.00
2022-09-09T03:02:48.785Z,100.00
2022-09-09T03:07:56.169Z,100.00
2022-09-09T03:13:03.488Z,100.00
2022-09-09T03:18:10.706Z,100.00
2022-09-09T03:23:18.101Z,100.00
2022-09-09T03:28:32.595Z,100.00
2022-09-09T03:33:39.848Z,100.00
2022-09-09T03:38:46.997Z,99.97
2022-09-09T03:43:54.000Z,100.00
2022-09-09T03:49:01.683Z,99.78
2022-09-09T03:54:09.646Z,99.48
2022-09-09T03:59:18.049Z,99.72
2022-09-09T04:04:25.326Z,99.87
2022-09-09T04:09:32.271Z,100.00
2022-09-09T04:14:40.576Z,100.00
2022-09-09T04:19:47.801Z,100.00
2022-09-09T04:24:54.945Z,100.00
2022-09-09T04:30:02.098Z,100.00
2022-09-09T04:35:10.080Z,100.00
2022-09-09T04:40:16.801Z,100.00
2022-09-09T04:45:23.803Z,100.00
2022-09-09T04:50:33.101Z,100.00
2022-09-09T04:55:39.962Z,100.00
2022-09-09T05:00:47.658Z,100.00
2022-09-09T05:05:55.143Z,100.00
2022-09-09T05:11:01.984Z,100.00
2022-09-09T05:16:12.458Z,100.00
2022-09-09T05:21:20.839Z,100.00
2022-09-09T05:26:27.754Z,100.00
2022-09-09T05:31:35.200Z,100.00
2022-09-09T05:36:42.779Z,100.00
2022-09-09T05:41:49.958Z,100.00
2022-09-09T05:46:57.447Z,100.00
2022-09-09T05:52:06.188Z,100.00
2022-09-09T05:57:13.293Z,100.00
2022-09-09T06:02:21.027Z,100.00
2022-09-09T06:07:28.202Z,100.00
2022-09-09T06:12:35.229Z,100.00
2022-09-09T06:17:43.322Z,100.00
2022-09-09T06:22:50.826Z,99.68
2022-09-09T06:27:58.042Z,98.95
2022-09-09T06:33:04.927Z,98.57
2022-09-09T06:38:11.716Z,98.02
2022-09-09T06:43:19.319Z,96.66
2022-09-09T06:48:27.777Z,95.55
2022-09-09T06:53:35.897Z,94.44
2022-09-09T06:58:44.213Z,94.91
2022-09-09T07:03:53.031Z,95.26
2022-09-09T07:09:01.898Z,93.46
2022-09-09T07:14:09.973Z,91.79
2022-09-09T07:19:17.749Z,91.36
2022-09-09T07:24:25.464Z,90.98
2022-09-09T07:29:32.766Z,90.45
2022-09-09T07:34:39.828Z,90.04
2022-09-09T07:39:46.758Z,89.55
2022-09-09T07:44:55.993Z,89.88
2022-09-09T07:50:03.297Z,89.56
2022-09-09T07:55:11.024Z,89.34
2022-09-09T08:00:20.617Z,88.27
2022-09-09T08:05:27.987Z,87.12
2022-09-09T08:10:34.953Z,84.12
2022-09-09T08:15:42.766Z,83.54
2022-09-09T08:20:49.497Z,82.85
2022-09-09T08:25:56.196Z,81.08
2022-09-09T08:31:11.689Z,81.21
2022-09-09T08:36:20.585Z,80.18
2022-09-09T08:41:43.388Z,79.45
2022-09-09T08:47:00.229Z,76.71
2022-09-09T08:53:31.342Z,76.07
2022-09-09T08:58:46.065Z,75.90
2022-09-09T09:04:02.769Z,76.63
2022-09-09T09:09:19.572Z,75.38
2022-09-09T09:19:37.915Z,74.37
2022-09-09T09:29:18.754Z,74.91
2022-09-09T09:34:30.460Z,73.97
2022-09-09T09:45:37.511Z,72.65
2022-09-09T09:50:56.010Z,72.54
2022-09-09T09:56:08.250Z,72.45
2022-09-09T10:01:23.890Z,70.11
2022-09-09T10:06:51.363Z,69.03
2022-09-09T10:12:23.324Z,68.45
2022-09-09T10:18:07.772Z,68.60
2022-09-09T10:23:35.334Z,68.88
2022-09-09T10:29:11.605Z,69.50
2022-09-09T10:34:44.223Z,67.91
2022-09-09T10:40:01.725Z,67.10
2022-09-09T10:45:36.457Z,65.24
2022-09-09T10:51:04.384Z,64.50
2022-09-09T10:56:33.821Z,64.80
2022-09-09T11:02:03.779Z,65.05
2022-09-09T11:07:22.828Z,63.85
2022-09-09T11:12:55.835Z,64.11
2022-09-09T11:18:51.199Z,63.21
2022-09-09T11:24:11.909Z,63.91
2022-09-09T11:30:56.172Z,62.73
2022-09-09T11:39:56.313Z,61.81
2022-09-09T11:45:23.178Z,62.31
2022-09-09T11:50:41.426Z,60.63
2022-09-09T11:55:49.565Z,60.89
2022-09-09T12:00:57.228Z,60.59
2022-09-09T12:06:16.066Z,61.26
2022-09-09T12:11:32.406Z,60.48
2022-09-09T12:16:41.607Z,59.49
2022-09-09T12:21:57.651Z,60.51
2022-09-09T12:27:14.367Z,61.22
2022-09-09T12:32:26.962Z,60.73
2022-09-09T12:37:38.529Z,59.15
2022-09-09T12:42:46.236Z,58.83
2022-09-09T12:47:58.009Z,58.03
2022-09-09T12:53:13.870Z,56.26
2022-09-09T12:58:22.817Z,56.87
2022-09-09T13:03:31.549Z,56.86
2022-09-09T13:08:39.504Z,56.38
2022-09-09T13:13:53.400Z,55.06
2022-09-09T13:19:02.654Z,55.53
2022-09-09T13:24:36.582Z,54.64
2022-09-09T13:29:53.676Z,55.02
2022-09-09T13:35:04.048Z,56.42
2022-09-09T13:40:23.988Z,56.33
2022-09-09T13:45:36.011Z,55.37
2022-09-09T13:53:51.203Z,55.40
2022-09-09T13:58:58.651Z,55.79
2022-09-09T14:04:07.693Z,55.72
2022-09-09T14:09:19.741Z,54.82
2022-09-09T14:14:27.092Z,55.09
2022-09-09T14:19:34.016Z,55.04
2022-09-09T14:24:40.930Z,54.79
2022-09-09T14:29:48.133Z,55.03
2022-09-09T14:34:55.309Z,55.99
2022-09-09T14:40:02.813Z,56.61
2022-09-09T14:45:11.808Z,55.54
2022-09-09T14:50:21.939Z,55.90
2022-09-09T14:55:30.364Z,56.42
2022-09-09T15:00:37.605Z,57.27
2022-09-09T15:05:44.615Z,57.18
2022-09-09T15:10:53.534Z,56.90
2022-09-09T15:16:08.238Z,56.66
2022-09-09T15:21:16.631Z,56.99
2022-09-09T15:26:24.053Z,56.82
2022-09-09T15:31:32.948Z,56.94
2022-09-09T15:36:41.432Z,56.90
2022-09-09T15:41:49.427Z,56.90
2022-09-09T15:46:56.947Z,57.16
2022-09-09T15:52:04.752Z,57.59
2022-09-09T15:57:13.515Z,58.26
2022-09-09T16:02:20.877Z,58.53
2022-09-09T16:07:27.794Z,58.26
2022-09-09T16:12:35.095Z,58.97
2022-09-09T16:17:41.985Z,58.95
2022-09-09T16:22:48.779Z,59.50
2022-09-09T16:27:56.298Z,59.81
2022-09-09T16:33:03.535Z,60.07
2022-09-09T16:38:11.330Z,60.05
2022-09-09T16:43:18.412Z,60.18
2022-09-09T16:48:25.399Z,60.42
2022-09-09T16:53:32.190Z,60.69
2022-09-09T16:58:40.499Z,61.65
2022-09-09T17:03:47.649Z,62.23
2022-09-09T17:09:00.372Z,63.04
2022-09-09T17:14:10.487Z,64.79
2022-09-09T17:19:18.067Z,65.59
2022-09-09T17:24:26.411Z,65.88
2022-09-09T17:29:33.424Z,65.50
2022-09-09T17:34:40.793Z,65.42
2022-09-09T17:39:48.908Z,66.72
2022-09-09T17:44:56.195Z,67.82
2022-09-09T17:50:03.576Z,68.70
2022-09-09T17:55:13.107Z,67.92
2022-09-09T18:00:21.340Z,68.56
2022-09-09T18:05:28.119Z,68.55
2022-09-09T18:10:35.612Z,68.68
2022-09-09T18:15:49.134Z,68.86
2022-09-09T18:21:06.722Z,69.10
2022-09-09T18:26:16.854Z,69.19
2022-09-09T18:31:25.749Z,69.34
2022-09-09T18:36:34.953Z,69.43
2022-09-09T18:41:43.781Z,70.34
2022-09-09T18:46:52.371Z,70.61
2022-09-09T18:51:59.830Z,71.11
2022-09-09T18:57:07.685Z,71.66
2022-09-09T19:02:15.057Z,72.29
2022-09-09T19:07:22.163Z,72.30
2022-09-09T19:12:29.302Z,73.15
2022-09-09T19:17:37.476Z,73.78
2022-09-09T19:22:44.485Z,74.19
2022-09-09T19:27:52.563Z,75.31
2022-09-09T19:32:59.716Z,76.03
2022-09-09T19:38:08.034Z,76.72
2022-09-09T19:43:15.341Z,77.34
2022-09-09T19:48:22.136Z,77.89
2022-09-09T19:53:29.456Z,78.41
2022-09-09T19:58:40.286Z,78.93
2022-09-09T20:03:49.361Z,78.98
2022-09-09T20:08:58.040Z,79.36
2022-09-09T20:14:04.998Z,78.43
2022-09-09T20:19:16.219Z,77.46
2022-09-09T20:24:24.216Z,77.17
2022-09-09T20:29:31.034Z,77.22
2022-09-09T20:34:38.186Z,77.28
2022-09-09T20:39:46.503Z,77.41
2022-09-09T20:44:53.657Z,77.99
2022-09-09T20:50:00.732Z,77.72
2022-09-09T20:55:09.375Z,78.12
2022-09-09T21:00:17.493Z,78.93
2022-09-09T21:05:25.663Z,79.42
2022-09-09T21:10:32.895Z,79.79
2022-09-09T21:15:42.451Z,79.38
2022-09-09T21:20:50.558Z,80.46
2022-09-09T21:25:57.925Z,80.57
2022-09-09T21:31:06.590Z,80.50
2022-09-09T21:36:15.641Z,81.18
2022-09-09T21:41:23.076Z,81.29
2022-09-09T21:46:30.139Z,81.69
2022-09-09T21:51:37.300Z,81.22
2022-09-09T21:56:45.750Z,81.56
2022-09-09T22:01:53.433Z,82.12
2022-09-09T22:07:00.408Z,82.28
2022-09-09T22:12:08.207Z,83.53
2022-09-09T22:17:15.763Z,83.96
2022-09-09T22:22:26.478Z,83.82
2022-09-09T22:27:33.763Z,84.34
2022-09-09T22:32:41.146Z,84.30
2022-09-09T22:37:48.508Z,84.54
2022-09-09T22:42:57.210Z,84.07
2022-09-09T22:48:05.209Z,84.86
2022-09-09T22:53:14.682Z,85.00
2022-09-09T22:58:22.529Z,84.54
2022-09-09T23:03:30.378Z,85.23
2022-09-09T23:08:38.545Z,85.49
2022-09-09T23:13:49.729Z,86.09
2022-09-09T23:18:56.951Z,85.96
2022-09-09T23:24:05.524Z,86.40
2022-09-09T23:29:14.790Z,86.62
2022-09-09T23:34:22.554Z,86.70
2022-09-09T23:39:29.756Z,86.65
2022-09-09T23:44:36.946Z,87.03
2022-09-09T23:49:44.668Z,87.24
2022-09-09T23:54:52.323Z,87.69
2022-09-09T23:59:59.172Z,87.29
